Finlandia — OJPP — position and weather

sailwx.info

Track history (hours):
 
Tides and Currents Weather Stations Pressure Air Temp Water Temp Dewpoint Dewpoint Depression Visibility Wind Speed Wind Dir Waves Ship Positions

Finlandia

Last reported at 2016-May-30 09:26 UTC. Time now 2016-May-30 12:40 UTC.
Position N 59°32' E 024°44'.

Length 175 m; draft 7 m.

Type: Passenger vessel. MMSI: 230628000.

Date/timePositionNaut miles runAvg speedWind from/ knotsBaromVisibWave heightAir tempDewpointWater temp
2016-May-30 09:26N 59°32' E 024°44'5 3.8
2016-May-30 08:06N 59°27' E 024°46'610.3
2016-May-30 07:32N 59°32' E 024°43'5 0.3
2016-May-29 16:19N 59°38' E 024°42'11 6.2
2016-May-29 14:33N 59°27' E 024°47'3023.4
2016-May-29 13:17N 59°56' E 024°53'2 0.8
2016-May-29 10:28N 59°54' E 024°53'2318.8
2016-May-29 09:16N 59°32' E 024°44'3 1.5
2016-May-29 07:33N 59°30' E 024°45'2418.8
2016-May-29 06:16N 59°54' E 024°50'27 1.8
2016-May-28 15:33N 59°27' E 024°46'0 0.5
2016-May-28 14:32N 59°27' E 024°47'4 0.8
2016-May-28 09:11N 59°31' E 024°45'1 0.6
2016-May-28 07:34N 59°30' E 024°44'3 0.2
2016-May-27 14:33N 59°27' E 024°46'7 1.4
2016-May-27 09:23N 59°34' E 024°43'3 1.5
2016-May-27 07:33N 59°31' E 024°44'2519.7
2016-May-27 06:19N 59°55' E 024°52'29 1.8
2016-May-26 14:33N 59°27' E 024°46'5 1.0
2016-May-26 09:12N 59°32' E 024°44'2 0.9
2016-May-26 07:33N 59°30' E 024°44'23 3.3
2016-May-26 00:31N 59°53' E 024°51'1616.5
2016-May-25 23:34N 59°38' E 024°40'12 5.8
2016-May-25 21:33N 59°27' E 024°46'4 0.8
2016-May-25 16:07N 59°31' E 024°45'4 2.5
2016-May-25 14:29N 59°27' E 024°47'23 5.4
2016-May-25 10:15N 59°50' E 024°54'1520.8
2016-May-25 09:31N 59°36' E 024°42'18 5.6
2016-May-25 06:22N 59°53' E 024°50'21 3.0
2016-May-24 23:18N 59°32' E 024°44'5 2.8
2016-May-24 21:33N 59°27' E 024°46'1917.6
2016-May-24 20:28N 59°46' E 024°44'17 5.6
2016-May-24 17:31N 60°02' E 024°54'3511.8
2016-May-24 14:34N 59°27' E 024°46'5 0.9
2016-May-24 09:23N 59°31' E 024°45'38 2.5
2016-May-23 18:09N 60°09' E 024°55'4211.7
2016-May-23 14:31N 59°27' E 024°47'2822.9
2016-May-23 13:18N 59°55' E 024°52'24 6.0
2016-May-23 09:24N 59°32' E 024°44'2 0.9
2016-May-23 07:32N 59°30' E 024°44'2 0.1
2016-May-22 16:07N 59°32' E 024°44'5 3.2
2016-May-22 14:32N 59°27' E 024°46'21 4.6
2016-May-22 10:07N 59°47' E 024°49'1419.7
2016-May-22 09:26N 59°34' E 024°43'8 8.7
2016-May-22 08:33N 59°27' E 024°46'4 3.9
2016-May-22 07:33N 59°31' E 024°44'26 1.8
2016-May-21 17:17N 59°56' E 024°53'3017.2
2016-May-21 15:33N 59°27' E 024°46'0 0.1
2016-May-21 14:33N 59°27' E 024°46'6 1.2
2016-May-21 09:19N 59°33' E 024°43'6 0.3
2016-May-20 14:33N 59°27' E 024°47'2423.0
2016-May-20 13:30N 59°51' E 024°50'7 2.4
2016-May-20 10:33N 59°58' E 024°54'  
Track history (hours):
 
Tides and Currents Weather Stations Pressure Air Temp Water Temp Dewpoint Dewpoint Depression Visibility Wind Speed Wind Dir Waves Ship Positions

Finlandia

Last reported at 2016-May-30 09:26 UTC. Time now 2016-May-30 12:40 UTC.
Position N 59°32' E 024°44'.

Length 175 m; draft 7 m.

Type: Passenger vessel. MMSI: 230628000.

Date/timePositionNaut miles runAvg speedWind from/ knotsBaromVisibWave heightAir tempDewpointWater temp
2016-May-30 09:26N 59°32' E 024°44'5 3.8
2016-May-30 08:06N 59°27' E 024°46'610.3
2016-May-30 07:32N 59°32' E 024°43'5 0.3
2016-May-29 16:19N 59°38' E 024°42'11 6.2
2016-May-29 14:33N 59°27' E 024°47'3023.4
2016-May-29 13:17N 59°56' E 024°53'2 0.8
2016-May-29 10:28N 59°54' E 024°53'2318.8
2016-May-29 09:16N 59°32' E 024°44'3 1.5
2016-May-29 07:33N 59°30' E 024°45'2418.8
2016-May-29 06:16N 59°54' E 024°50'27 1.8
2016-May-28 15:33N 59°27' E 024°46'0 0.5
2016-May-28 14:32N 59°27' E 024°47'4 0.8
2016-May-28 09:11N 59°31' E 024°45'1 0.6
2016-May-28 07:34N 59°30' E 024°44'3 0.2
2016-May-27 14:33N 59°27' E 024°46'7 1.4
2016-May-27 09:23N 59°34' E 024°43'3 1.5
2016-May-27 07:33N 59°31' E 024°44'2519.7
2016-May-27 06:19N 59°55' E 024°52'29 1.8
2016-May-26 14:33N 59°27' E 024°46'5 1.0
2016-May-26 09:12N 59°32' E 024°44'2 0.9
2016-May-26 07:33N 59°30' E 024°44'23 3.3
2016-May-26 00:31N 59°53' E 024°51'1616.5
2016-May-25 23:34N 59°38' E 024°40'12 5.8
2016-May-25 21:33N 59°27' E 024°46'4 0.8
2016-May-25 16:07N 59°31' E 024°45'4 2.5
2016-May-25 14:29N 59°27' E 024°47'23 5.4
2016-May-25 10:15N 59°50' E 024°54'1520.8
2016-May-25 09:31N 59°36' E 024°42'18 5.6
2016-May-25 06:22N 59°53' E 024°50'21 3.0
2016-May-24 23:18N 59°32' E 024°44'5 2.8
2016-May-24 21:33N 59°27' E 024°46'1917.6
2016-May-24 20:28N 59°46' E 024°44'17 5.6
2016-May-24 17:31N 60°02' E 024°54'3511.8
2016-May-24 14:34N 59°27' E 024°46'5 0.9
2016-May-24 09:23N 59°31' E 024°45'38 2.5
2016-May-23 18:09N 60°09' E 024°55'4211.7
2016-May-23 14:31N 59°27' E 024°47'2822.9
2016-May-23 13:18N 59°55' E 024°52'24 6.0
2016-May-23 09:24N 59°32' E 024°44'2 0.9
2016-May-23 07:32N 59°30' E 024°44'2 0.1
2016-May-22 16:07N 59°32' E 024°44'5 3.2
2016-May-22 14:32N 59°27' E 024°46'21 4.6
2016-May-22 10:07N 59°47' E 024°49'1419.7
2016-May-22 09:26N 59°34' E 024°43'8 8.7
2016-May-22 08:33N 59°27' E 024°46'4 3.9
2016-May-22 07:33N 59°31' E 024°44'26 1.8
2016-May-21 17:17N 59°56' E 024°53'3017.2
2016-May-21 15:33N 59°27' E 024°46'0 0.1
2016-May-21 14:33N 59°27' E 024°46'6 1.2
2016-May-21 09:19N 59°33' E 024°43'6 0.3
2016-May-20 14:33N 59°27' E 024°47'2423.0
2016-May-20 13:30N 59°51' E 024°50'7 2.4
2016-May-20 10:33N 59°58' E 024°54'  

Dump ship's entire track history